createdAt,value
2023-01-27T17:21:39.759Z,87.30
2023-01-27T17:24:15.459Z,88.40
2023-01-27T17:26:46.059Z,88.80
2023-01-27T17:29:19.429Z,88.80
2023-01-27T17:31:47.599Z,89.20
2023-01-27T17:34:19.600Z,89.40
2023-01-27T17:37:08.111Z,89.20
2023-01-27T17:39:39.590Z,89.30
2023-01-27T17:42:07.979Z,89.50
2023-01-27T17:44:36.560Z,89.30
2023-01-27T17:47:06.692Z,89.50
2023-01-27T17:49:34.695Z,89.70
2023-01-27T17:52:02.799Z,89.20
2023-01-27T17:54:33.713Z,89.50
2023-01-27T17:57:06.943Z,89.50
2023-01-27T17:59:36.817Z,89.70
2023-01-27T18:02:09.625Z,89.60
2023-01-27T18:04:42.719Z,89.70
2023-01-27T18:07:11.672Z,90.00
2023-01-27T18:09:52.021Z,90.20
2023-01-27T18:12:32.039Z,90.10
2023-01-27T18:15:00.103Z,90.10
2023-01-27T18:17:28.167Z,90.00
2023-01-27T18:19:57.708Z,90.10
2023-01-27T18:22:27.082Z,90.20
2023-01-27T18:25:00.159Z,90.20
2023-01-27T18:27:31.114Z,90.20
2023-01-27T18:30:04.476Z,90.00
2023-01-27T18:32:42.848Z,88.60
2023-01-27T18:35:24.330Z,88.50
2023-01-27T18:37:55.062Z,88.80
2023-01-27T18:40:27.638Z,88.80
2023-01-27T18:42:56.606Z,89.00
2023-01-27T18:45:25.191Z,88.80
2023-01-27T18:47:53.271Z,88.60
2023-01-27T18:50:22.651Z,88.30
2023-01-27T18:52:51.783Z,88.50
2023-01-27T18:55:21.483Z,88.40
2023-01-27T18:57:52.953Z,88.70
2023-01-27T19:00:23.248Z,88.80
2023-01-27T19:02:53.542Z,88.80
2023-01-27T19:05:23.340Z,89.20
2023-01-27T19:07:51.460Z,89.50
2023-01-27T19:10:24.890Z,90.00
2023-01-27T19:12:55.284Z,89.90
2023-01-27T19:15:24.423Z,89.70
2023-01-27T19:17:53.956Z,89.60
2023-01-27T19:20:23.451Z,90.00
2023-01-27T19:22:53.372Z,90.10
2023-01-27T19:25:21.894Z,90.40
2023-01-27T19:27:52.984Z,90.70
2023-01-27T19:30:27.972Z,90.80
2023-01-27T19:32:56.111Z,90.90
2023-01-27T19:35:25.581Z,90.80
2023-01-27T19:37:56.506Z,90.90
2023-01-27T19:40:25.749Z,90.70
2023-01-27T19:42:53.657Z,90.80
2023-01-27T19:45:22.812Z,90.90
2023-01-27T19:47:52.861Z,91.10
2023-01-27T19:50:23.877Z,91.00
2023-01-27T19:52:52.160Z,90.90
2023-01-27T19:55:21.425Z,90.90
2023-01-27T19:57:50.427Z,90.90
2023-01-27T20:00:24.725Z,91.00
2023-01-27T20:02:53.972Z,91.00
2023-01-27T20:05:22.388Z,90.90
2023-01-27T20:07:50.501Z,91.00
2023-01-27T20:10:21.509Z,90.90
2023-01-27T20:12:57.548Z,90.90
2023-01-27T20:15:27.310Z,90.90
2023-01-27T20:17:56.946Z,90.80
2023-01-27T20:20:26.549Z,90.80
2023-01-27T20:22:54.643Z,90.70
2023-01-27T20:25:24.116Z,90.70
2023-01-27T20:27:53.929Z,90.70
2023-01-27T20:30:23.976Z,90.70
2023-01-27T20:32:53.844Z,90.70
2023-01-27T20:35:24.762Z,90.60
2023-01-27T20:37:54.058Z,90.70
2023-01-27T20:40:24.484Z,90.80
2023-01-27T20:42:53.019Z,90.80
2023-01-27T20:45:22.463Z,90.90
2023-01-27T20:47:51.176Z,90.80
2023-01-27T20:50:19.505Z,90.80
2023-01-27T20:52:49.304Z,90.80
2023-01-27T20:55:19.568Z,90.80
2023-01-27T20:57:47.853Z,90.80
2023-01-27T21:00:18.386Z,90.90
2023-01-27T21:02:46.430Z,90.90
2023-01-27T21:05:15.263Z,91.00
2023-01-27T21:07:43.473Z,90.70
2023-01-27T21:10:13.232Z,90.50
2023-01-27T21:12:41.098Z,90.20
2023-01-27T21:15:10.485Z,90.30
2023-01-27T21:17:38.633Z,90.50
2023-01-27T21:20:07.857Z,90.50
2023-01-27T21:22:35.783Z,90.50
2023-01-27T21:25:03.636Z,90.70
2023-01-27T21:27:32.876Z,90.70
2023-01-27T21:30:00.786Z,90.40
2023-01-27T21:32:28.755Z,90.70
2023-01-27T21:34:58.467Z,90.60
2023-01-27T21:37:26.496Z,90.60
2023-01-27T21:39:54.358Z,90.50
2023-01-27T21:42:39.388Z,90.40
2023-01-27T21:45:15.094Z,90.30
2023-01-27T21:47:43.329Z,90.10
2023-01-27T21:50:14.315Z,90.00
2023-01-27T21:52:44.846Z,90.00
2023-01-27T21:55:14.858Z,89.70
2023-01-27T21:57:43.281Z,89.70
2023-01-27T22:00:16.111Z,89.80
2023-01-27T22:02:44.280Z,90.10
2023-01-27T22:05:13.237Z,89.70
2023-01-27T22:07:42.157Z,90.10
2023-01-27T22:10:17.271Z,90.10
2023-01-27T22:12:45.739Z,90.20
2023-01-27T22:15:16.764Z,90.20
2023-01-27T22:17:45.120Z,90.30
2023-01-27T22:20:14.030Z,90.30
2023-01-27T22:22:42.146Z,90.30
2023-01-27T22:25:11.440Z,90.40
2023-01-27T22:27:41.313Z,90.50
2023-01-27T22:30:10.813Z,90.40
2023-01-27T22:32:40.039Z,90.50
2023-01-27T22:35:08.813Z,90.40
2023-01-27T22:37:37.674Z,90.40
2023-01-27T22:40:07.312Z,90.50
2023-01-27T22:42:35.670Z,90.60
2023-01-27T22:45:03.712Z,90.50
2023-01-27T22:47:31.584Z,90.40
2023-01-27T22:50:00.833Z,90.50
2023-01-27T22:52:28.661Z,90.60
2023-01-27T22:54:56.560Z,90.60
2023-01-27T22:57:30.063Z,90.40
2023-01-27T22:59:58.822Z,90.50
2023-01-27T23:02:27.882Z,90.50
2023-01-27T23:04:55.946Z,90.80
2023-01-27T23:07:26.210Z,90.80
2023-01-27T23:09:54.098Z,90.80
2023-01-27T23:12:22.062Z,90.80
2023-01-27T23:14:49.903Z,90.90
2023-01-27T23:17:17.776Z,90.80
2023-01-27T23:19:45.624Z,90.90
2023-01-27T23:22:13.483Z,90.80
2023-01-27T23:24:42.764Z,91.00
2023-01-27T23:27:10.843Z,90.90
2023-01-27T23:29:38.751Z,90.90
2023-01-27T23:32:07.207Z,90.80
2023-01-27T23:34:35.085Z,90.90
2023-01-27T23:37:02.952Z,90.90
2023-01-27T23:39:30.861Z,91.00
2023-01-27T23:42:00.098Z,91.00
2023-01-27T23:44:28.038Z,90.80
2023-01-27T23:46:55.934Z,90.80
2023-01-27T23:49:23.805Z,90.90
2023-01-27T23:51:51.623Z,90.90
2023-01-27T23:54:19.637Z,90.70
2023-01-27T23:56:47.503Z,91.10
2023-01-27T23:59:16.980Z,90.80
